sensor_id;sensor_type;location;lat;lon;timestamp;P1;durP1;ratioP1;P2;durP2;ratioP2
1014;SDS011;8170;48.118;11.628;2023-03-20T00:00:52;6.60;;;5.65;;
1014;SDS011;8170;48.118;11.628;2023-03-20T00:01:56;6.13;;;5.50;;
1014;SDS011;8170;48.118;11.628;2023-03-20T00:02:59;6.95;;;6.15;;
1014;SDS011;8170;48.118;11.628;2023-03-20T00:04:03;5.95;;;4.65;;
1014;SDS011;8170;48.118;11.628;2023-03-20T00:05:13;5.63;;;5.13;;
1014;SDS011;8170;48.118;11.628;2023-03-20T00:06:20;4.85;;;4.45;;
1014;SDS011;8170;48.118;11.628;2023-03-20T00:07:23;5.75;;;5.22;;
1014;SDS011;8170;48.118;11.628;2023-03-20T00:08:27;5.65;;;5.15;;
1014;SDS011;8170;48.118;11.628;2023-03-20T00:09:32;6.80;;;6.10;;
1014;SDS011;8170;48.118;11.628;2023-03-20T00:10:35;5.45;;;4.95;;
1014;SDS011;8170;48.118;11.628;2023-03-20T00:11:43;6.20;;;5.60;;
1014;SDS011;8170;48.118;11.628;2023-03-20T00:12:48;5.35;;;4.90;;
1014;SDS011;8170;48.118;11.628;2023-03-20T00:13:53;5.22;;;4.72;;
1014;SDS011;8170;48.118;11.628;2023-03-20T00:14:57;5.35;;;4.85;;
1014;SDS011;8170;48.118;11.628;2023-03-20T00:16:03;4.43;;;4.03;;
1014;SDS011;8170;48.118;11.628;2023-03-20T00:17:07;6.45;;;5.82;;
1014;SDS011;8170;48.118;11.628;2023-03-20T00:18:13;5.45;;;4.90;;
1014;SDS011;8170;48.118;11.628;2023-03-20T00:19:19;6.05;;;5.53;;
1014;SDS011;8170;48.118;11.628;2023-03-20T00:20:24;5.30;;;4.68;;
1014;SDS011;8170;48.118;11.628;2023-03-20T00:21:27;5.65;;;4.95;;
1014;SDS011;8170;48.118;11.628;2023-03-20T00:22:31;6.78;;;5.45;;
1014;SDS011;8170;48.118;11.628;2023-03-20T00:23:34;6.93;;;5.43;;
1014;SDS011;8170;48.118;11.628;2023-03-20T00:24:37;6.43;;;5.70;;
1014;SDS011;8170;48.118;11.628;2023-03-20T00:25:41;4.90;;;4.25;;
1014;SDS011;8170;48.118;11.628;2023-03-20T00:26:45;4.90;;;4.40;;
1014;SDS011;8170;48.118;11.628;2023-03-20T00:27:49;6.15;;;4.63;;
1014;SDS011;8170;48.118;11.628;2023-03-20T00:28:53;5.22;;;4.47;;
1014;SDS011;8170;48.118;11.628;2023-03-20T00:29:56;5.70;;;4.97;;
1014;SDS011;8170;48.118;11.628;2023-03-20T00:30:59;4.18;;;3.70;;
1014;SDS011;8170;48.118;11.628;2023-03-20T00:32:04;5.50;;;5.00;;
1014;SDS011;8170;48.118;11.628;2023-03-20T00:33:10;8.90;;;5.25;;
1014;SDS011;8170;48.118;11.628;2023-03-20T00:34:14;5.78;;;4.32;;
1014;SDS011;8170;48.118;11.628;2023-03-20T00:35:21;4.90;;;4.50;;
1014;SDS011;8170;48.118;11.628;2023-03-20T00:36:26;5.00;;;4.57;;
1014;SDS011;8170;48.118;11.628;2023-03-20T00:37:29;4.38;;;3.97;;
1014;SDS011;8170;48.118;11.628;2023-03-20T00:38:32;4.85;;;4.45;;
1014;SDS011;8170;48.118;11.628;2023-03-20T00:39:34;4.57;;;4.18;;
1014;SDS011;8170;48.118;11.628;2023-03-20T00:40:38;5.63;;;5.18;;
1014;SDS011;8170;48.118;11.628;2023-03-20T00:41:41;5.45;;;4.68;;
1014;SDS011;8170;48.118;11.628;2023-03-20T00:42:46;5.30;;;4.80;;
1014;SDS011;8170;48.118;11.628;2023-03-20T00:43:55;4.95;;;4.45;;
1014;SDS011;8170;48.118;11.628;2023-03-20T00:45:02;5.57;;;5.07;;
1014;SDS011;8170;48.118;11.628;2023-03-20T00:46:05;4.97;;;4.32;;
1014;SDS011;8170;48.118;11.628;2023-03-20T00:47:15;5.15;;;4.10;;
1014;SDS011;8170;48.118;11.628;2023-03-20T00:48:19;4.68;;;4.20;;
1014;SDS011;8170;48.118;11.628;2023-03-20T00:49:24;3.80;;;3.40;;
1014;SDS011;8170;48.118;11.628;2023-03-20T00:50:28;4.40;;;4.00;;
1014;SDS011;8170;48.118;11.628;2023-03-20T00:51:33;4.57;;;4.18;;
1014;SDS011;8170;48.118;11.628;2023-03-20T00:52:36;4.25;;;3.85;;
1014;SDS011;8170;48.118;11.628;2023-03-20T00:53:40;3.90;;;3.60;;
1014;SDS011;8170;48.118;11.628;2023-03-20T00:54:42;3.50;;;3.10;;
1014;SDS011;8170;48.118;11.628;2023-03-20T00:55:46;5.53;;;3.38;;
1014;SDS011;8170;48.118;11.628;2023-03-20T00:56:49;5.38;;;4.25;;
1014;SDS011;8170;48.118;11.628;2023-03-20T00:57:59;4.28;;;3.88;;
1014;SDS011;8170;48.118;11.628;2023-03-20T00:59:04;5.22;;;3.85;;
1014;SDS011;8170;48.118;11.628;2023-03-20T01:00:12;4.28;;;3.88;;
1014;SDS011;8170;48.118;11.628;2023-03-20T01:01:41;4.40;;;3.97;;
1014;SDS011;8170;48.118;11.628;2023-03-20T01:02:45;3.70;;;3.40;;
1014;SDS011;8170;48.118;11.628;2023-03-20T01:03:49;3.97;;;3.42;;
1014;SDS011;8170;48.118;11.628;2023-03-20T01:04:51;4.10;;;3.70;;
1014;SDS011;8170;48.118;11.628;2023-03-20T01:05:55;3.45;;;3.15;;
1014;SDS011;8170;48.118;11.628;2023-03-20T01:06:57;3.67;;;3.38;;
1014;SDS011;8170;48.118;11.628;2023-03-20T01:08:01;3.65;;;3.30;;
1014;SDS011;8170;48.118;11.628;2023-03-20T01:09:03;3.33;;;3.13;;
1014;SDS011;8170;48.118;11.628;2023-03-20T01:10:08;4.15;;;3.75;;
1014;SDS011;8170;48.118;11.628;2023-03-20T01:11:12;3.67;;;3.38;;
1014;SDS011;8170;48.118;11.628;2023-03-20T01:12:15;3.75;;;3.20;;
1014;SDS011;8170;48.118;11.628;2023-03-20T01:13:19;3.67;;;3.35;;
1014;SDS011;8170;48.118;11.628;2023-03-20T01:14:25;3.70;;;3.40;;
1014;SDS011;8170;48.118;11.628;2023-03-20T01:15:29;3.70;;;3.40;;
1014;SDS011;8170;48.118;11.628;2023-03-20T01:16:34;4.05;;;3.70;;
1014;SDS011;8170;48.118;11.628;2023-03-20T01:17:37;4.30;;;3.88;;
1014;SDS011;8170;48.118;11.628;2023-03-20T01:18:40;4.78;;;4.30;;
1014;SDS011;8170;48.118;11.628;2023-03-20T01:19:42;5.47;;;4.07;;
1014;SDS011;8170;48.118;11.628;2023-03-20T01:20:46;4.70;;;4.30;;
1014;SDS011;8170;48.118;11.628;2023-03-20T01:21:53;4.00;;;3.70;;
1014;SDS011;8170;48.118;11.628;2023-03-20T01:23:00;4.47;;;4.03;;
1014;SDS011;8170;48.118;11.628;2023-03-20T01:24:02;4.45;;;4.05;;
1014;SDS011;8170;48.118;11.628;2023-03-20T01:25:06;4.55;;;4.15;;
1014;SDS011;8170;48.118;11.628;2023-03-20T01:26:18;3.53;;;3.22;;
1014;SDS011;8170;48.118;11.628;2023-03-20T01:27:24;3.40;;;3.10;;
1014;SDS011;8170;48.118;11.628;2023-03-20T01:28:27;3.67;;;3.38;;
1014;SDS011;8170;48.118;11.628;2023-03-20T01:29:32;4.63;;;3.83;;
1014;SDS011;8170;48.118;11.628;2023-03-20T01:30:35;4.43;;;3.97;;
1014;SDS011;8170;48.118;11.628;2023-03-20T01:31:38;3.88;;;3.40;;
1014;SDS011;8170;48.118;11.628;2023-03-20T01:32:40;4.55;;;4.15;;
1014;SDS011;8170;48.118;11.628;2023-03-20T01:33:47;4.13;;;3.70;;
1014;SDS011;8170;48.118;11.628;2023-03-20T01:34:49;4.70;;;3.97;;
1014;SDS011;8170;48.118;11.628;2023-03-20T01:35:54;5.35;;;4.32;;
1014;SDS011;8170;48.118;11.628;2023-03-20T01:36:58;4.50;;;4.10;;
1014;SDS011;8170;48.118;11.628;2023-03-20T01:38:02;4.10;;;3.70;;
1014;SDS011;8170;48.118;11.628;2023-03-20T01:39:06;3.97;;;3.58;;
1014;SDS011;8170;48.118;11.628;2023-03-20T01:40:13;3.67;;;3.38;;
1014;SDS011;8170;48.118;11.628;2023-03-20T01:41:24;4.78;;;4.20;;
1014;SDS011;8170;48.118;11.628;2023-03-20T01:42:28;4.15;;;3.75;;
1014;SDS011;8170;48.118;11.628;2023-03-20T01:43:31;5.10;;;4.15;;
1014;SDS011;8170;48.118;11.628;2023-03-20T01:44:36;5.30;;;4.60;;
1014;SDS011;8170;48.118;11.628;2023-03-20T01:45:39;4.70;;;4.30;;
1014;SDS011;8170;48.118;11.628;2023-03-20T01:46:51;4.15;;;3.75;;
1014;SDS011;8170;48.118;11.628;2023-03-20T01:47:54;4.70;;;4.30;;
1014;SDS011;8170;48.118;11.628;2023-03-20T01:49:00;4.68;;;4.28;;
1014;SDS011;8170;48.118;11.628;2023-03-20T01:50:23;4.35;;;3.85;;
1014;SDS011;8170;48.118;11.628;2023-03-20T01:51:33;4.35;;;3.92;;
1014;SDS011;8170;48.118;11.628;2023-03-20T01:52:42;5.30;;;4.53;;
1014;SDS011;8170;48.118;11.628;2023-03-20T01:53:45;4.82;;;4.43;;
1014;SDS011;8170;48.118;11.628;2023-03-20T01:54:51;4.20;;;3.80;;
1014;SDS011;8170;48.118;11.628;2023-03-20T01:55:56;5.07;;;4.03;;
1014;SDS011;8170;48.118;11.628;2023-03-20T01:57:08;4.70;;;3.97;;
1014;SDS011;8170;48.118;11.628;2023-03-20T01:58:17;5.22;;;4.53;;
1014;SDS011;8170;48.118;11.628;2023-03-20T01:59:23;4.03;;;3.72;;
1014;SDS011;8170;48.118;11.628;2023-03-20T02:00:29;4.70;;;4.22;;
1014;SDS011;8170;48.118;11.628;2023-03-20T02:01:33;4.45;;;4.05;;
1014;SDS011;8170;48.118;11.628;2023-03-20T02:02:37;4.20;;;3.65;;
1014;SDS011;8170;48.118;11.628;2023-03-20T02:03:43;5.30;;;4.80;;
1014;SDS011;8170;48.118;11.628;2023-03-20T02:04:59;3.90;;;3.40;;
1014;SDS011;8170;48.118;11.628;2023-03-20T02:06:05;5.07;;;3.90;;
1014;SDS011;8170;48.118;11.628;2023-03-20T02:07:48;5.35;;;4.13;;
1014;SDS011;8170;48.118;11.628;2023-03-20T02:08:58;4.05;;;3.65;;
1014;SDS011;8170;48.118;11.628;2023-03-20T02:10:08;4.20;;;3.55;;
1014;SDS011;8170;48.118;11.628;2023-03-20T02:11:23;4.30;;;3.90;;
1014;SDS011;8170;48.118;11.628;2023-03-20T02:12:26;5.63;;;3.88;;
1014;SDS011;8170;48.118;11.628;2023-03-20T02:13:31;3.58;;;3.28;;
1014;SDS011;8170;48.118;11.628;2023-03-20T02:14:35;4.00;;;3.40;;
1014;SDS011;8170;48.118;11.628;2023-03-20T02:15:58;6.10;;;3.47;;
1014;SDS011;8170;48.118;11.628;2023-03-20T02:17:22;3.80;;;3.50;;
1014;SDS011;8170;48.118;11.628;2023-03-20T02:18:32;5.30;;;3.55;;
1014;SDS011;8170;48.118;11.628;2023-03-20T02:19:38;4.43;;;3.20;;
1014;SDS011;8170;48.118;11.628;2023-03-20T02:25:14;2.78;;;2.58;;
1014;SDS011;8170;48.118;11.628;2023-03-20T02:26:43;2.90;;;2.60;;
1014;SDS011;8170;48.118;11.628;2023-03-20T02:28:02;5.82;;;3.10;;
1014;SDS011;8170;48.118;11.628;2023-03-20T02:30:57;3.00;;;2.70;;
1014;SDS011;8170;48.118;11.628;2023-03-20T02:34:03;2.97;;;2.70;;
1014;SDS011;8170;48.118;11.628;2023-03-20T02:37:24;2.30;;;2.10;;
1014;SDS011;8170;48.118;11.628;2023-03-20T02:39:05;3.58;;;2.67;;
1014;SDS011;8170;48.118;11.628;2023-03-20T02:40:20;2.97;;;2.40;;
1014;SDS011;8170;48.118;11.628;2023-03-20T02:41:32;2.50;;;2.30;;
1014;SDS011;8170;48.118;11.628;2023-03-20T02:42:43;3.85;;;2.15;;
1014;SDS011;8170;48.118;11.628;2023-03-20T02:43:54;2.50;;;2.30;;
1014;SDS011;8170;48.118;11.628;2023-03-20T02:45:05;3.08;;;2.30;;
1014;SDS011;8170;48.118;11.628;2023-03-20T02:46:18;2.70;;;2.50;;
1014;SDS011;8170;48.118;11.628;2023-03-20T02:47:27;3.03;;;2.13;;
1014;SDS011;8170;48.118;11.628;2023-03-20T02:48:44;2.22;;;1.88;;
1014;SDS011;8170;48.118;11.628;2023-03-20T02:49:55;3.35;;;2.10;;
1014;SDS011;8170;48.118;11.628;2023-03-20T02:51:12;3.17;;;2.25;;
1014;SDS011;8170;48.118;11.628;2023-03-20T02:52:19;3.55;;;2.40;;
1014;SDS011;8170;48.118;11.628;2023-03-20T02:53:34;2.38;;;2.17;;
1014;SDS011;8170;48.118;11.628;2023-03-20T02:54:44;2.88;;;2.60;;
1014;SDS011;8170;48.118;11.628;2023-03-20T02:55:58;2.60;;;2.20;;
1014;SDS011;8170;48.118;11.628;2023-03-20T02:57:08;2.70;;;2.50;;
1014;SDS011;8170;48.118;11.628;2023-03-20T02:58:19;1.88;;;1.77;;
1014;SDS011;8170;48.118;11.628;2023-03-20T02:59:26;3.10;;;2.08;;
1014;SDS011;8170;48.118;11.628;2023-03-20T03:00:35;2.53;;;2.30;;
1014;SDS011;8170;48.118;11.628;2023-03-20T03:01:42;2.00;;;1.80;;
1014;SDS011;8170;48.118;11.628;2023-03-20T03:02:49;2.13;;;1.90;;
1014;SDS011;8170;48.118;11.628;2023-03-20T03:03:57;2.40;;;2.20;;
1014;SDS011;8170;48.118;11.628;2023-03-20T03:05:07;3.55;;;2.10;;
1014;SDS011;8170;48.118;11.628;2023-03-20T03:06:15;2.97;;;2.45;;
1014;SDS011;8170;48.118;11.628;2023-03-20T03:07:23;3.25;;;2.45;;
1014;SDS011;8170;48.118;11.628;2023-03-20T03:08:32;2.55;;;2.35;;
1014;SDS011;8170;48.118;11.628;2023-03-20T03:09:39;3.78;;;2.58;;
1014;SDS011;8170;48.118;11.628;2023-03-20T03:10:45;2.35;;;2.15;;
1014;SDS011;8170;48.118;11.628;2023-03-20T03:11:52;3.30;;;2.60;;
1014;SDS011;8170;48.118;11.628;2023-03-20T03:12:59;2.33;;;2.10;;
1014;SDS011;8170;48.118;11.628;2023-03-20T03:14:04;2.40;;;2.20;;
1014;SDS011;8170;48.118;11.628;2023-03-20T03:15:09;3.50;;;2.70;;
1014;SDS011;8170;48.118;11.628;2023-03-20T03:16:18;3.25;;;2.70;;
1014;SDS011;8170;48.118;11.628;2023-03-20T03:17:25;3.65;;;2.85;;
1014;SDS011;8170;48.118;11.628;2023-03-20T03:18:31;2.80;;;2.60;;
1014;SDS011;8170;48.118;11.628;2023-03-20T03:19:36;2.10;;;1.90;;
1014;SDS011;8170;48.118;11.628;2023-03-20T03:20:43;2.47;;;2.28;;
1014;SDS011;8170;48.118;11.628;2023-03-20T03:21:48;2.53;;;2.20;;
1014;SDS011;8170;48.118;11.628;2023-03-20T03:22:54;2.13;;;1.92;;
1014;SDS011;8170;48.118;11.628;2023-03-20T03:23:56;3.08;;;2.78;;
1014;SDS011;8170;48.118;11.628;2023-03-20T03:25:00;2.35;;;2.15;;
1014;SDS011;8170;48.118;11.628;2023-03-20T03:26:03;2.83;;;2.63;;
1014;SDS011;8170;48.118;11.628;2023-03-20T03:27:10;2.20;;;1.98;;
1014;SDS011;8170;48.118;11.628;2023-03-20T03:28:20;3.45;;;2.75;;
1014;SDS011;8170;48.118;11.628;2023-03-20T03:29:30;2.30;;;2.10;;
1014;SDS011;8170;48.118;11.628;2023-03-20T03:30:37;2.70;;;2.45;;
1014;SDS011;8170;48.118;11.628;2023-03-20T03:31:41;2.67;;;2.47;;
1014;SDS011;8170;48.118;11.628;2023-03-20T03:32:46;2.63;;;2.42;;
1014;SDS011;8170;48.118;11.628;2023-03-20T03:33:53;2.50;;;2.30;;
1014;SDS011;8170;48.118;11.628;2023-03-20T03:34:57;2.50;;;2.30;;
1014;SDS011;8170;48.118;11.628;2023-03-20T03:36:05;3.30;;;3.00;;
1014;SDS011;8170;48.118;11.628;2023-03-20T03:37:15;3.00;;;2.70;;
1014;SDS011;8170;48.118;11.628;2023-03-20T03:38:28;3.00;;;2.70;;
1014;SDS011;8170;48.118;11.628;2023-03-20T03:39:35;2.92;;;2.65;;
1014;SDS011;8170;48.118;11.628;2023-03-20T03:40:44;3.17;;;2.88;;
1014;SDS011;8170;48.118;11.628;2023-03-20T03:41:52;2.38;;;2.17;;
1014;SDS011;8170;48.118;11.628;2023-03-20T03:43:02;2.80;;;2.60;;
1014;SDS011;8170;48.118;11.628;2023-03-20T03:44:10;2.80;;;2.60;;
1014;SDS011;8170;48.118;11.628;2023-03-20T03:45:18;2.47;;;2.28;;
1014;SDS011;8170;48.118;11.628;2023-03-20T03:46:28;2.90;;;2.60;;
1014;SDS011;8170;48.118;11.628;2023-03-20T03:47:41;2.85;;;2.65;;
1014;SDS011;8170;48.118;11.628;2023-03-20T03:48:47;3.00;;;2.70;;
1014;SDS011;8170;48.118;11.628;2023-03-20T03:49:55;2.88;;;2.67;;
1014;SDS011;8170;48.118;11.628;2023-03-20T03:51:02;3.10;;;2.80;;
1014;SDS011;8170;48.118;11.628;2023-03-20T03:52:17;2.60;;;2.40;;
1014;SDS011;8170;48.118;11.628;2023-03-20T03:53:23;3.10;;;2.75;;
1014;SDS011;8170;48.118;11.628;2023-03-20T03:54:33;3.33;;;2.45;;
1014;SDS011;8170;48.118;11.628;2023-03-20T03:56:00;3.47;;;3.17;;
1014;SDS011;8170;48.118;11.628;2023-03-20T03:57:07;3.25;;;2.40;;
1014;SDS011;8170;48.118;11.628;2023-03-20T03:58:14;2.95;;;2.70;;
1014;SDS011;8170;48.118;11.628;2023-03-20T03:59:23;3.22;;;2.92;;
1014;SDS011;8170;48.118;11.628;2023-03-20T04:00:30;2.72;;;2.53;;
1014;SDS011;8170;48.118;11.628;2023-03-20T04:01:36;3.13;;;2.83;;
1014;SDS011;8170;48.118;11.628;2023-03-20T04:02:44;3.40;;;3.10;;
1014;SDS011;8170;48.118;11.628;2023-03-20T04:03:51;2.95;;;2.65;;
1014;SDS011;8170;48.118;11.628;2023-03-20T04:04:57;4.25;;;2.83;;
1014;SDS011;8170;48.118;11.628;2023-03-20T04:06:03;3.50;;;3.20;;
1014;SDS011;8170;48.118;11.628;2023-03-20T04:07:07;3.03;;;2.72;;
1014;SDS011;8170;48.118;11.628;2023-03-20T04:08:10;3.22;;;2.92;;
1014;SDS011;8170;48.118;11.628;2023-03-20T04:09:14;3.92;;;3.63;;
1014;SDS011;8170;48.118;11.628;2023-03-20T04:10:19;3.70;;;3.28;;
1014;SDS011;8170;48.118;11.628;2023-03-20T04:11:22;3.58;;;3.28;;
1014;SDS011;8170;48.118;11.628;2023-03-20T04:12:32;2.75;;;2.55;;
1014;SDS011;8170;48.118;11.628;2023-03-20T04:13:36;3.13;;;2.53;;
1014;SDS011;8170;48.118;11.628;2023-03-20T04:14:39;2.70;;;2.50;;
1014;SDS011;8170;48.118;11.628;2023-03-20T04:15:41;3.05;;;2.85;;
1014;SDS011;8170;48.118;11.628;2023-03-20T04:16:44;4.03;;;3.35;;
1014;SDS011;8170;48.118;11.628;2023-03-20T04:17:47;4.60;;;3.20;;
1014;SDS011;8170;48.118;11.628;2023-03-20T04:18:51;3.13;;;2.90;;
1014;SDS011;8170;48.118;11.628;2023-03-20T04:19:54;4.70;;;3.10;;
1014;SDS011;8170;48.118;11.628;2023-03-20T04:20:58;3.38;;;3.08;;
1014;SDS011;8170;48.118;11.628;2023-03-20T04:22:01;4.95;;;2.97;;
1014;SDS011;8170;48.118;11.628;2023-03-20T04:23:04;3.60;;;3.30;;
1014;SDS011;8170;48.118;11.628;2023-03-20T04:24:06;3.75;;;2.58;;
1014;SDS011;8170;48.118;11.628;2023-03-20T04:25:14;3.60;;;3.25;;
1014;SDS011;8170;48.118;11.628;2023-03-20T04:26:18;3.80;;;3.50;;
1014;SDS011;8170;48.118;11.628;2023-03-20T04:27:23;3.63;;;3.33;;
1014;SDS011;8170;48.118;11.628;2023-03-20T04:28:25;5.35;;;2.97;;
1014;SDS011;8170;48.118;11.628;2023-03-20T04:29:50;3.20;;;2.85;;
1014;SDS011;8170;48.118;11.628;2023-03-20T04:31:11;3.00;;;2.70;;
1014;SDS011;8170;48.118;11.628;2023-03-20T04:32:25;4.28;;;2.78;;
1014;SDS011;8170;48.118;11.628;2023-03-20T04:33:35;3.65;;;3.00;;
1014;SDS011;8170;48.118;11.628;2023-03-20T04:34:56;3.25;;;2.95;;
1014;SDS011;8170;48.118;11.628;2023-03-20T04:36:08;3.00;;;2.80;;
1014;SDS011;8170;48.118;11.628;2023-03-20T04:37:12;3.42;;;2.90;;
1014;SDS011;8170;48.118;11.628;2023-03-20T04:38:22;3.20;;;2.85;;
1014;SDS011;8170;48.118;11.628;2023-03-20T04:39:26;2.70;;;2.50;;
1014;SDS011;8170;48.118;11.628;2023-03-20T04:40:30;3.10;;;2.80;;
1014;SDS011;8170;48.118;11.628;2023-03-20T04:41:33;3.25;;;2.95;;
1014;SDS011;8170;48.118;11.628;2023-03-20T04:42:36;3.80;;;3.50;;
1014;SDS011;8170;48.118;11.628;2023-03-20T04:43:40;2.90;;;2.58;;
1014;SDS011;8170;48.118;11.628;2023-03-20T04:44:43;3.95;;;3.28;;
1014;SDS011;8170;48.118;11.628;2023-03-20T04:45:45;2.67;;;2.47;;
1014;SDS011;8170;48.118;11.628;2023-03-20T04:46:49;2.80;;;2.50;;
1014;SDS011;8170;48.118;11.628;2023-03-20T04:47:51;3.40;;;3.10;;
1014;SDS011;8170;48.118;11.628;2023-03-20T04:48:56;2.33;;;2.13;;
1014;SDS011;8170;48.118;11.628;2023-03-20T04:50:02;2.80;;;2.53;;
1014;SDS011;8170;48.118;11.628;2023-03-20T04:51:25;2.60;;;2.40;;
1014;SDS011;8170;48.118;11.628;2023-03-20T04:52:27;3.28;;;2.97;;
1014;SDS011;8170;48.118;11.628;2023-03-20T04:53:30;2.50;;;2.30;;
1014;SDS011;8170;48.118;11.628;2023-03-20T04:54:32;3.15;;;2.85;;
1014;SDS011;8170;48.118;11.628;2023-03-20T04:55:36;2.80;;;2.60;;
1014;SDS011;8170;48.118;11.628;2023-03-20T04:56:39;2.90;;;2.65;;
1014;SDS011;8170;48.118;11.628;2023-03-20T04:57:49;2.95;;;2.75;;
1014;SDS011;8170;48.118;11.628;2023-03-20T04:58:51;3.00;;;2.70;;
1014;SDS011;8170;48.118;11.628;2023-03-20T04:59:55;2.60;;;2.40;;
1014;SDS011;8170;48.118;11.628;2023-03-20T05:00:58;2.70;;;2.50;;
1014;SDS011;8170;48.118;11.628;2023-03-20T05:02:01;2.95;;;2.75;;
1014;SDS011;8170;48.118;11.628;2023-03-20T05:03:03;3.60;;;2.30;;
1014;SDS011;8170;48.118;11.628;2023-03-20T05:04:06;2.30;;;2.10;;
1014;SDS011;8170;48.118;11.628;2023-03-20T05:05:10;3.92;;;2.30;;
1014;SDS011;8170;48.118;11.628;2023-03-20T05:06:13;3.60;;;3.30;;
1014;SDS011;8170;48.118;11.628;2023-03-20T05:07:17;2.63;;;2.42;;
1014;SDS011;8170;48.118;11.628;2023-03-20T05:08:34;2.95;;;2.75;;
1014;SDS011;8170;48.118;11.628;2023-03-20T05:09:38;2.95;;;2.72;;
1014;SDS011;8170;48.118;11.628;2023-03-20T05:10:42;3.22;;;2.80;;
1014;SDS011;8170;48.118;11.628;2023-03-20T05:12:12;2.50;;;2.00;;
1014;SDS011;8170;48.118;11.628;2023-03-20T05:13:33;2.50;;;2.30;;
1014;SDS011;8170;48.118;11.628;2023-03-20T05:14:56;2.70;;;2.50;;
1014;SDS011;8170;48.118;11.628;2023-03-20T05:16:05;3.28;;;2.50;;
1014;SDS011;8170;48.118;11.628;2023-03-20T05:17:13;3.72;;;3.00;;
1014;SDS011;8170;48.118;11.628;2023-03-20T05:18:46;3.20;;;2.90;;
1014;SDS011;8170;48.118;11.628;2023-03-20T05:20:09;3.75;;;2.90;;
1014;SDS011;8170;48.118;11.628;2023-03-20T05:21:44;3.25;;;2.78;;
1014;SDS011;8170;48.118;11.628;2023-03-20T05:23:13;2.85;;;2.55;;
1014;SDS011;8170;48.118;11.628;2023-03-20T05:24:33;3.17;;;2.80;;
1014;SDS011;8170;48.118;11.628;2023-03-20T05:25:55;3.45;;;2.80;;
1014;SDS011;8170;48.118;11.628;2023-03-20T05:27:06;3.33;;;2.95;;
1014;SDS011;8170;48.118;11.628;2023-03-20T05:28:39;5.32;;;3.10;;
1014;SDS011;8170;48.118;11.628;2023-03-20T05:30:10;2.70;;;2.40;;
1014;SDS011;8170;48.118;11.628;2023-03-20T05:31:32;5.88;;;2.90;;
1014;SDS011;8170;48.118;11.628;2023-03-20T05:32:35;2.97;;;2.58;;
1014;SDS011;8170;48.118;11.628;2023-03-20T05:33:56;3.10;;;2.80;;
1014;SDS011;8170;48.118;11.628;2023-03-20T05:35:14;3.92;;;2.65;;
1014;SDS011;8170;48.118;11.628;2023-03-20T05:36:21;2.85;;;2.10;;
1014;SDS011;8170;48.118;11.628;2023-03-20T05:37:50;2.70;;;2.50;;
1014;SDS011;8170;48.118;11.628;2023-03-20T05:39:05;3.25;;;2.95;;
1014;SDS011;8170;48.118;11.628;2023-03-20T05:40:27;2.88;;;2.67;;
1014;SDS011;8170;48.118;11.628;2023-03-20T05:41:52;2.80;;;2.60;;
1014;SDS011;8170;48.118;11.628;2023-03-20T05:43:14;4.95;;;3.63;;
1014;SDS011;8170;48.118;11.628;2023-03-20T05:44:27;3.58;;;3.28;;
1014;SDS011;8170;48.118;11.628;2023-03-20T05:46:05;3.97;;;3.55;;
1014;SDS011;8170;48.118;11.628;2023-03-20T05:47:27;3.40;;;3.10;;
1014;SDS011;8170;48.118;11.628;2023-03-20T05:48:59;3.58;;;3.28;;
1014;SDS011;8170;48.118;11.628;2023-03-20T05:50:25;4.18;;;3.53;;
1014;SDS011;8170;48.118;11.628;2023-03-20T05:51:48;4.00;;;3.67;;
1014;SDS011;8170;48.118;11.628;2023-03-20T05:53:09;4.32;;;3.90;;
1014;SDS011;8170;48.118;11.628;2023-03-20T05:54:19;6.03;;;4.75;;
1014;SDS011;8170;48.118;11.628;2023-03-20T05:55:39;3.80;;;3.50;;
1014;SDS011;8170;48.118;11.628;2023-03-20T05:57:05;4.18;;;3.78;;
1014;SDS011;8170;48.118;11.628;2023-03-20T05:58:28;4.53;;;4.13;;
1014;SDS011;8170;48.118;11.628;2023-03-20T05:59:52;4.40;;;4.10;;
1014;SDS011;8170;48.118;11.628;2023-03-20T06:01:12;4.40;;;4.00;;
1014;SDS011;8170;48.118;11.628;2023-03-20T06:02:35;4.53;;;4.13;;
1014;SDS011;8170;48.118;11.628;2023-03-20T06:03:52;4.35;;;3.95;;
1014;SDS011;8170;48.118;11.628;2023-03-20T06:05:13;4.90;;;4.40;;
1014;SDS011;8170;48.118;11.628;2023-03-20T06:06:20;4.78;;;4.38;;
1014;SDS011;8170;48.118;11.628;2023-03-20T06:07:24;4.68;;;3.92;;
1014;SDS011;8170;48.118;11.628;2023-03-20T06:08:35;5.53;;;4.47;;
1014;SDS011;8170;48.118;11.628;2023-03-20T06:09:37;5.47;;;4.25;;
1014;SDS011;8170;48.118;11.628;2023-03-20T06:10:44;4.45;;;4.05;;
1014;SDS011;8170;48.118;11.628;2023-03-20T06:11:47;5.20;;;4.70;;
1014;SDS011;8170;48.118;11.628;2023-03-20T06:12:51;5.55;;;5.03;;
1014;SDS011;8170;48.118;11.628;2023-03-20T06:13:58;5.25;;;4.75;;
1014;SDS011;8170;48.118;11.628;2023-03-20T06:15:11;5.35;;;4.95;;
1014;SDS011;8170;48.118;11.628;2023-03-20T06:16:20;5.68;;;5.18;;
1014;SDS011;8170;48.118;11.628;2023-03-20T06:17:23;5.75;;;5.25;;
1014;SDS011;8170;48.118;11.628;2023-03-20T06:18:33;4.85;;;4.40;;
1014;SDS011;8170;48.118;11.628;2023-03-20T06:19:35;5.18;;;4.72;;
1014;SDS011;8170;48.118;11.628;2023-03-20T06:20:39;6.60;;;5.07;;
1014;SDS011;8170;48.118;11.628;2023-03-20T06:21:42;5.60;;;5.00;;
1014;SDS011;8170;48.118;11.628;2023-03-20T06:22:48;5.63;;;5.13;;
1014;SDS011;8170;48.118;11.628;2023-03-20T06:23:52;7.15;;;5.05;;
1014;SDS011;8170;48.118;11.628;2023-03-20T06:24:57;9.35;;;4.90;;
1014;SDS011;8170;48.118;11.628;2023-03-20T06:26:08;5.88;;;5.28;;
1014;SDS011;8170;48.118;11.628;2023-03-20T06:27:24;6.00;;;5.50;;
1014;SDS011;8170;48.118;11.628;2023-03-20T06:28:27;6.22;;;5.63;;
1014;SDS011;8170;48.118;11.628;2023-03-20T06:29:37;7.10;;;6.50;;
1014;SDS011;8170;48.118;11.628;2023-03-20T06:30:56;6.55;;;5.95;;
1014;SDS011;8170;48.118;11.628;2023-03-20T06:31:58;7.85;;;7.15;;
1014;SDS011;8170;48.118;11.628;2023-03-20T06:33:04;7.55;;;6.70;;
1014;SDS011;8170;48.118;11.628;2023-03-20T06:34:18;7.90;;;7.20;;
1014;SDS011;8170;48.118;11.628;2023-03-20T06:35:21;6.53;;;5.93;;
1014;SDS011;8170;48.118;11.628;2023-03-20T06:36:24;6.80;;;6.20;;
1014;SDS011;8170;48.118;11.628;2023-03-20T06:37:33;6.47;;;5.88;;
1014;SDS011;8170;48.118;11.628;2023-03-20T06:38:43;6.90;;;6.30;;
1014;SDS011;8170;48.118;11.628;2023-03-20T06:39:49;7.60;;;6.90;;
1014;SDS011;8170;48.118;11.628;2023-03-20T06:40:52;7.85;;;7.15;;
1014;SDS011;8170;48.118;11.628;2023-03-20T06:41:55;7.43;;;6.70;;
1014;SDS011;8170;48.118;11.628;2023-03-20T06:42:59;7.72;;;6.93;;
1014;SDS011;8170;48.118;11.628;2023-03-20T06:44:10;8.98;;;8.18;;
1014;SDS011;8170;48.118;11.628;2023-03-20T06:45:32;6.85;;;6.25;;
1014;SDS011;8170;48.118;11.628;2023-03-20T06:46:41;8.55;;;6.95;;
1014;SDS011;8170;48.118;11.628;2023-03-20T06:47:43;8.23;;;7.53;;
1014;SDS011;8170;48.118;11.628;2023-03-20T06:48:47;7.80;;;7.00;;
1014;SDS011;8170;48.118;11.628;2023-03-20T06:49:49;8.18;;;7.07;;
1014;SDS011;8170;48.118;11.628;2023-03-20T06:50:54;8.40;;;7.60;;
1014;SDS011;8170;48.118;11.628;2023-03-20T06:52:04;9.80;;;7.10;;
1014;SDS011;8170;48.118;11.628;2023-03-20T06:53:07;8.48;;;7.68;;
1014;SDS011;8170;48.118;11.628;2023-03-20T06:54:15;7.80;;;7.00;;
1014;SDS011;8170;48.118;11.628;2023-03-20T06:55:17;7.85;;;7.15;;
1014;SDS011;8170;48.118;11.628;2023-03-20T06:56:21;7.97;;;7.20;;
1014;SDS011;8170;48.118;11.628;2023-03-20T06:57:23;7.93;;;7.10;;
1014;SDS011;8170;48.118;11.628;2023-03-20T06:58:28;9.23;;;7.50;;
1014;SDS011;8170;48.118;11.628;2023-03-20T06:59:30;6.97;;;6.18;;
1014;SDS011;8170;48.118;11.628;2023-03-20T07:00:34;8.27;;;7.57;;
1014;SDS011;8170;48.118;11.628;2023-03-20T07:01:41;8.07;;;7.38;;
1014;SDS011;8170;48.118;11.628;2023-03-20T07:02:44;7.28;;;6.68;;
1014;SDS011;8170;48.118;11.628;2023-03-20T07:03:48;7.63;;;6.93;;
1014;SDS011;8170;48.118;11.628;2023-03-20T07:04:57;8.90;;;7.05;;
1014;SDS011;8170;48.118;11.628;2023-03-20T07:06:01;7.03;;;6.35;;
1014;SDS011;8170;48.118;11.628;2023-03-20T07:07:04;9.63;;;8.77;;
1014;SDS011;8170;48.118;11.628;2023-03-20T07:08:08;9.00;;;8.18;;
1014;SDS011;8170;48.118;11.628;2023-03-20T07:09:11;7.55;;;6.85;;